Orangeburg Municipal Airport
KOGB : now visible

Airfield :











YOU CAN JOIN US ON...

 
LOGIN :

Register | Disclaimer

   EN    FR    IT 

 









Legend :    VFR   Marginal VFR   IFR   Intensive IFR   Very Intensive IFR
Visi :
Ceiling :
>= 8 km
>= 3000ft
5 to 8 km
1000 to 3000 ft
1500m to 5 km
500 to 1000 ft
800 to 1500m
200 to 500 ft
< 800m
< 200 ft
Symbols :   Thunderstorms  Fog  Heavy snow  Heavy precipitations  Wind > 20 kt







- Airport Elevation : 195 ft


KOGB - Orangeburg Municipal

CURRENT METAR :
  • 201553Z AUTO 22011KT 10SM FEW040 BKN050 OVC060 14/05 A2981 RMK AO2 SLP093 T01390050

EXPIRED METARs :
  • 201453Z AUTO 22012G18KT 10SM BKN031 OVC045 13/06 A2981 RMK AO2 SLP094 T01280056 51009
  • 201432Z AUTO 21016G23KT 10SM SCT031 BKN046 OVC055 13/06 A2981 RMK AO2 T01330061
  • 201425Z AUTO 20013KT 10SM BKN029 OVC044 13/07 A2981 RMK AO2 T01330067
  • 201353Z AUTO 21012KT 10SM FEW027 BKN034 OVC041 12/06 A2981 RMK AO2 SLP093 T01170056

TAF KOGB
Valid from the 20 at 15:00 until the 21 at 12:00 UTC


201434Z 2015/2112 23015G25KT P6SM FEW025 BKN030
FM210000 26010KT P6SM BKN040
FM210600 21008KT P6SM SCT035
KZJX FIR / North America



MET'MAP, your aeronautical weather chart ! - Copyright ORBIFLY December 2007 - Disclaimer

ORBIFLY MET'MAP TEAM :

Programming & Development : Alexandra Zaïnal
Concept & Development : Baudouin d'Aumeries
Co-Development & Prog : Marc-Olivier Méhu
Technical & hardware support : Manuel Goepfert

Contact : metmap@orbifly.com




SOURCES & CREDITS :

   NOAA       Earth
Advisory